Time;durP1;ratioP1;P1;durP2;ratioP2;P2;SDS_P1;SDS_P2;PMS_P1;PMS_P2;Temp;Humidity;BMP_temperature;BMP_pressure;BME280_temperature;BME280_humidity;BME280_pressure;Samples;Min_cycle;Max_cycle;Signal;HPM_P1;HPM_P2
2021/12/01 00:00:28;;;;;;;12.07;6.32;;;;;;;;;;8465285;28;20081;-73
2021/12/01 00:04:45;;;;;;;15.13;8.23;;;;;;;;;;8465671;27;20096;-73
2021/12/01 00:08:48;;;;;;;14.93;7.03;;;;;;;;;;8465477;28;20471;-73
2021/12/01 00:12:53;;;;;;;14.43;6.40;;;;;;;;;;8464819;28;20047;-72
2021/12/01 00:16:56;;;;;;;13.82;6.85;;;;;;;;;;8464829;28;20050;-73
2021/12/01 00:20:59;;;;;;;17.17;7.35;;;;;;;;;;8464660;28;20043;-73
2021/12/01 00:25:02;;;;;;;20.60;8.48;;;;;;;;;;8465042;28;20066;-73
2021/12/01 00:29:07;;;;;;;10.70;6.20;;;;;;;;;;8464482;28;20051;-73
2021/12/01 00:33:12;;;;;;;13.48;7.68;;;;;;;;;;8463818;28;20047;-73
2021/12/01 00:37:15;;;;;;;19.30;7.68;;;;;;;;;;8464817;28;20051;-73
2021/12/01 00:41:20;;;;;;;15.93;6.82;;;;;;;;;;8464193;28;20043;-72
2021/12/01 00:45:26;;;;;;;17.40;7.30;;;;;;;;;;8464256;28;20058;-73
2021/12/01 00:49:29;;;;;;;13.63;6.63;;;;;;;;;;8464073;28;20134;-73
2021/12/01 00:53:33;;;;;;;14.10;6.93;;;;;;;;;;8464373;28;20470;-73
2021/12/01 00:57:36;;;;;;;12.52;6.65;;;;;;;;;;8463928;28;20108;-73
2021/12/01 01:01:41;;;;;;;13.45;6.60;;;;;;;;;;8463819;28;20143;-73
2021/12/01 01:05:44;;;;;;;16.08;7.75;;;;;;;;;;8463694;28;20096;-72
2021/12/01 01:09:47;;;;;;;14.02;6.30;;;;;;;;;;8463740;28;20055;-73
2021/12/01 01:18:12;;;;;;;13.90;6.32;;;;;;;;;;8464040;28;20054;-72
2021/12/01 01:22:15;;;;;;;13.30;7.28;;;;;;;;;;8464002;28;20043;-72
2021/12/01 01:26:20;;;;;;;11.38;6.95;;;;;;;;;;8463914;28;20048;-73
2021/12/01 01:30:23;;;;;;;15.15;7.60;;;;;;;;;;8463462;28;20039;-73
2021/12/01 01:34:28;;;;;;;14.07;7.47;;;;;;;;;;8463255;28;20043;-72
2021/12/01 01:38:32;;;;;;;14.20;7.32;;;;;;;;;;8463224;28;20043;-72
2021/12/01 01:42:35;;;;;;;13.52;7.65;;;;;;;;;;8463696;28;20418;-72
2021/12/01 01:46:40;;;;;;;15.93;7.97;;;;;;;;;;8469575;28;20450;-72
2021/12/01 01:50:45;;;;;;;13.57;7.72;;;;;;;;;;8469616;28;20039;-72
2021/12/01 01:54:48;;;;;;;14.35;7.95;;;;;;;;;;8469339;28;20067;-72
2021/12/01 01:58:51;;;;;;;17.38;8.38;;;;;;;;;;8469718;28;20467;-72
2021/12/01 02:02:56;;;;;;;18.10;8.35;;;;;;;;;;8469077;28;20039;-72
2021/12/01 02:07:02;;;;;;;14.88;8.20;;;;;;;;;;8469476;28;20047;-72
2021/12/01 02:11:08;;;;;;;14.75;8.07;;;;;;;;;;8469463;28;20429;-72
2021/12/01 02:15:11;;;;;;;14.98;8.20;;;;;;;;;;8469096;28;20047;-72
2021/12/01 02:19:14;;;;;;;19.80;8.85;;;;;;;;;;8468553;28;20075;-73
2021/12/01 02:23:19;;;;;;;19.42;8.88;;;;;;;;;;8468965;28;20048;-73
2021/12/01 02:27:22;;;;;;;21.85;10.35;;;;;;;;;;8468367;28;20104;-73
2021/12/01 02:31:28;;;;;;;18.33;8.20;;;;;;;;;;8468238;28;20096;-73
2021/12/01 02:35:31;;;;;;;7.65;4.90;;;;;;;;;;8468610;28;20487;-73
2021/12/01 02:39:38;;;;;;;9.50;4.82;;;;;;;;;;8468504;27;20479;-73
2021/12/01 02:43:44;;;;;;;9.05;4.35;;;;;;;;;;8468416;28;20126;-73
2021/12/01 02:47:47;;;;;;;8.73;4.85;;;;;;;;;;8467517;28;20056;-73
2021/12/01 02:51:53;;;;;;;11.32;5.15;;;;;;;;;;8468025;28;20070;-73
2021/12/01 02:56:00;;;;;;;12.52;6.90;;;;;;;;;;8467125;28;20051;-73
2021/12/01 03:00:03;;;;;;;11.75;6.07;;;;;;;;;;8467860;28;20048;-72
2021/12/01 03:04:06;;;;;;;14.40;6.22;;;;;;;;;;8467613;28;20100;-73
2021/12/01 03:08:10;;;;;;;10.60;5.82;;;;;;;;;;8466964;28;20097;-73
2021/12/01 03:12:14;;;;;;;11.30;6.60;;;;;;;;;;8467308;28;20051;-73
2021/12/01 03:16:17;;;;;;;13.65;7.22;;;;;;;;;;8467202;28;20476;-73
2021/12/01 03:20:22;;;;;;;16.10;7.15;;;;;;;;;;8466617;28;20384;-73
2021/12/01 03:24:25;;;;;;;15.77;7.97;;;;;;;;;;8466829;28;20130;-73
2021/12/01 03:28:29;;;;;;;11.65;6.72;;;;;;;;;;8466670;28;20048;-72
2021/12/01 03:32:32;;;;;;;14.90;9.27;;;;;;;;;;8466079;28;20138;-73
2021/12/01 03:36:35;;;;;;;14.48;8.70;;;;;;;;;;8466525;28;20495;-73
2021/12/01 03:40:38;;;;;;;18.55;8.70;;;;;;;;;;8466428;28;20135;-73
2021/12/01 03:44:43;;;;;;;12.90;7.63;;;;;;;;;;8466136;28;20430;-73
2021/12/01 03:48:46;;;;;;;12.57;7.05;;;;;;;;;;8466250;28;20134;-73
2021/12/01 03:52:50;;;;;;;18.52;9.55;;;;;;;;;;8465536;28;20048;-73
2021/12/01 03:56:53;;;;;;;15.40;7.65;;;;;;;;;;8465965;28;20054;-73
2021/12/01 04:00:57;;;;;;;16.05;9.40;;;;;;;;;;8465838;28;20483;-73
2021/12/01 04:05:00;;;;;;;21.10;10.57;;;;;;;;;;8465057;28;20074;-73
2021/12/01 04:09:05;;;;;;;22.42;10.85;;;;;;;;;;8464481;28;20509;-73
2021/12/01 04:13:07;;;;;;;21.90;9.98;;;;;;;;;;8464809;28;20058;-73
2021/12/01 04:17:12;;;;;;;18.40;9.30;;;;;;;;;;8464795;28;20469;-73
2021/12/01 04:21:16;;;;;;;18.50;9.18;;;;;;;;;;8464718;28;20138;-73
2021/12/01 04:25:19;;;;;;;15.48;9.23;;;;;;;;;;8465144;28;20055;-73
2021/12/01 04:29:22;;;;;;;17.02;9.85;;;;;;;;;;8465060;28;20536;-73
2021/12/01 04:33:26;;;;;;;23.85;9.93;;;;;;;;;;8464361;28;20054;-73
2021/12/01 04:37:29;;;;;;;22.50;11.02;;;;;;;;;;8464843;28;20143;-73
2021/12/01 04:41:38;;;;;;;28.92;11.82;;;;;;;;;;8464199;28;20047;-73
2021/12/01 04:45:42;;;;;;;20.35;9.32;;;;;;;;;;8463946;28;20612;-74
2021/12/01 04:49:47;;;;;;;20.98;10.30;;;;;;;;;;8464566;28;20043;-73
2021/12/01 04:53:50;;;;;;;22.17;10.25;;;;;;;;;;8464354;28;20077;-73
2021/12/01 04:57:53;;;;;;;18.98;9.48;;;;;;;;;;8463915;28;20281;-73
2021/12/01 05:01:56;;;;;;;22.90;10.25;;;;;;;;;;8463778;28;20084;-73
2021/12/01 05:06:01;;;;;;;28.25;12.02;;;;;;;;;;8463696;28;20052;-73
2021/12/01 05:10:06;;;;;;;22.13;11.40;;;;;;;;;;8464146;28;20039;-73
2021/12/01 05:14:10;;;;;;;26.25;11.50;;;;;;;;;;8463597;28;20074;-73
2021/12/01 05:18:13;;;;;;;29.60;13.05;;;;;;;;;;8466754;28;20046;-73
2021/12/01 05:22:17;;;;;;;26.50;10.68;;;;;;;;;;8470520;28;20044;-73
2021/12/01 05:26:20;;;;;;;30.25;13.65;;;;;;;;;;8470343;28;20054;-73
2021/12/01 05:30:23;;;;;;;28.55;12.52;;;;;;;;;;8470611;28;20040;-73
2021/12/01 05:34:27;;;;;;;26.88;12.30;;;;;;;;;;8470486;28;20043;-73
2021/12/01 05:38:31;;;;;;;33.75;14.48;;;;;;;;;;8470434;27;20077;-73
2021/12/01 05:42:34;;;;;;;35.70;16.05;;;;;;;;;;8469751;28;20044;-75
2021/12/01 05:46:38;;;;;;;38.33;18.08;;;;;;;;;;8469380;28;20502;-75
2021/12/01 05:50:41;;;;;;;28.45;12.93;;;;;;;;;;8469464;28;20130;-73
2021/12/01 05:54:50;;;;;;;38.17;17.48;;;;;;;;;;8469304;28;20380;-73
2021/12/01 05:58:53;;;;;;;33.38;16.67;;;;;;;;;;8469782;28;20530;-73
2021/12/01 06:02:56;;;;;;;28.05;14.60;;;;;;;;;;8469086;28;20047;-74
2021/12/01 06:06:59;;;;;;;40.47;19.23;;;;;;;;;;8469500;28;20051;-73
2021/12/01 06:11:04;;;;;;;47.13;22.98;;;;;;;;;;8468955;27;20051;-73
2021/12/01 06:15:08;;;;;;;36.85;17.83;;;;;;;;;;8469225;28;20050;-73
2021/12/01 06:19:11;;;;;;;34.85;18.23;;;;;;;;;;8468722;28;20039;-73
2021/12/01 06:23:14;;;;;;;35.13;16.73;;;;;;;;;;8469058;28;20043;-73
2021/12/01 06:27:22;;;;;;;37.38;17.17;;;;;;;;;;8434307;28;20063;-73
2021/12/01 06:31:27;;;;;;;35.67;16.52;;;;;;;;;;8397973;28;20036;-73
2021/12/01 06:35:30;;;;;;;32.60;13.75;;;;;;;;;;8400868;28;20404;-73
2021/12/01 06:39:33;;;;;;;26.05;12.02;;;;;;;;;;8401759;28;20446;-73
2021/12/01 06:43:38;;;;;;;33.10;15.77;;;;;;;;;;8400725;28;20131;-73
2021/12/01 06:47:41;;;;;;;40.88;17.67;;;;;;;;;;8400342;28;20053;-73
2021/12/01 06:51:44;;;;;;;23.60;11.60;;;;;;;;;;8400374;28;20044;-73
2021/12/01 06:55:47;;;;;;;23.42;11.57;;;;;;;;;;8400252;28;20059;-73
2021/12/01 06:59:52;;;;;;;20.35;9.75;;;;;;;;;;8400081;28;20045;-73
2021/12/01 07:03:55;;;;;;;19.33;9.07;;;;;;;;;;8399948;28;20049;-73
2021/12/01 07:07:58;;;;;;;21.10;9.27;;;;;;;;;;8399816;28;20044;-73
2021/12/01 07:12:01;;;;;;;25.13;11.02;;;;;;;;;;8400173;28;20488;-73
2021/12/01 07:16:07;;;;;;;27.55;13.23;;;;;;;;;;8399459;28;20052;-73
2021/12/01 07:20:12;;;;;;;17.27;8.68;;;;;;;;;;8399982;28;20103;-74
2021/12/01 07:24:16;;;;;;;16.38;8.07;;;;;;;;;;8399312;28;20386;-73
2021/12/01 07:28:19;;;;;;;47.30;21.88;;;;;;;;;;8399173;28;20045;-73
2021/12/01 07:32:23;;;;;;;27.02;13.93;;;;;;;;;;8399125;28;20044;-73
2021/12/01 07:36:26;;;;;;;27.15;13.25;;;;;;;;;;8398350;28;20047;-73
2021/12/01 07:40:30;;;;;;;19.77;10.57;;;;;;;;;;8406857;28;20056;-73
2021/12/01 07:44:33;;;;;;;24.98;12.45;;;;;;;;;;8405137;28;20131;-73
2021/12/01 07:48:39;;;;;;;24.23;12.98;;;;;;;;;;8431886;28;20506;-73
2021/12/01 07:52:42;;;;;;;19.95;10.50;;;;;;;;;;8425098;28;20433;-73
2021/12/01 07:56:45;;;;;;;16.45;8.82;;;;;;;;;;8426259;28;20060;-80
2021/12/01 08:00:48;;;;;;;14.52;7.90;;;;;;;;;;8397965;28;20055;-73
2021/12/01 08:04:53;;;;;;;16.10;7.60;;;;;;;;;;8406867;28;20094;-73
2021/12/01 08:08:59;;;;;;;16.10;7.85;;;;;;;;;;8397846;28;20074;-75
2021/12/01 08:13:04;;;;;;;15.90;8.20;;;;;;;;;;8398203;28;20476;-80
2021/12/01 08:17:07;;;;;;;20.95;10.10;;;;;;;;;;8397551;28;20064;-79
2021/12/01 08:21:13;;;;;;;35.05;16.35;;;;;;;;;;8397542;28;20045;-80
2021/12/01 08:25:16;;;;;;;23.13;11.30;;;;;;;;;;8397850;28;20094;-74
2021/12/01 08:29:20;;;;;;;17.85;10.23;;;;;;;;;;8397902;28;20054;-75
2021/12/01 08:33:23;;;;;;;19.05;10.32;;;;;;;;;;8397648;28;20048;-73
2021/12/01 08:37:27;;;;;;;21.77;11.50;;;;;;;;;;8397253;28;20048;-76
2021/12/01 08:41:30;;;;;;;20.33;9.00;;;;;;;;;;8399548;28;20047;-76
2021/12/01 08:45:34;;;;;;;18.10;8.57;;;;;;;;;;8405670;28;20044;-72
2021/12/01 08:49:37;;;;;;;18.10;9.43;;;;;;;;;;8396966;28;20051;-76
2021/12/01 08:53:42;;;;;;;21.48;10.15;;;;;;;;;;8396446;28;20484;-74
2021/12/01 08:57:46;;;;;;;18.08;9.02;;;;;;;;;;8396964;28;20063;-79
2021/12/01 09:01:49;;;;;;;15.70;8.60;;;;;;;;;;8396823;28;20052;-79
2021/12/01 09:05:53;;;;;;;17.52;8.00;;;;;;;;;;8396391;28;20053;-73
2021/12/01 09:09:58;;;;;;;19.48;10.85;;;;;;;;;;8396795;28;20064;-74
2021/12/01 09:14:01;;;;;;;18.70;9.07;;;;;;;;;;8396531;28;20052;-77
2021/12/01 09:18:05;;;;;;;17.33;8.80;;;;;;;;;;8396587;28;20048;-75
2021/12/01 09:22:08;;;;;;;16.08;7.75;;;;;;;;;;8396525;28;20091;-77
2021/12/01 09:26:13;;;;;;;16.10;8.77;;;;;;;;;;8396840;28;20045;-77
2021/12/01 09:30:18;;;;;;;14.82;8.68;;;;;;;;;;8403590;28;20074;-73
2021/12/01 09:34:21;;;;;;;16.95;9.10;;;;;;;;;;8426188;28;20059;-73
2021/12/01 09:38:26;;;;;;;31.50;16.48;;;;;;;;;;8408026;28;20044;-75
2021/12/01 09:42:32;;;;;;;12.00;7.88;;;;;;;;;;8429518;28;20051;-74
2021/12/01 09:46:35;;;;;;;15.07;8.13;;;;;;;;;;8411025;28;20079;-73
2021/12/01 09:50:39;;;;;;;17.60;11.38;;;;;;;;;;8402544;28;20399;-74
2021/12/01 09:54:41;;;;;;;14.88;8.00;;;;;;;;;;8396146;28;20052;-74
2021/12/01 09:58:46;;;;;;;13.80;7.78;;;;;;;;;;8394504;28;20097;-80
2021/12/01 10:02:49;;;;;;;11.75;7.43;;;;;;;;;;8396164;28;20044;-74
2021/12/01 10:07:12;;;;;;;12.32;7.07;;;;;;;;;;8400535;28;20048;-74
2021/12/01 10:11:17;;;;;;;14.65;7.32;;;;;;;;;;8401629;28;20179;-74
2021/12/01 10:15:31;;;;;;;14.52;6.78;;;;;;;;;;8401482;28;20044;-74
2021/12/01 10:19:34;;;;;;;12.23;6.63;;;;;;;;;;8401370;28;20055;-74
2021/12/01 10:23:41;;;;;;;14.70;7.57;;;;;;;;;;8401099;28;20524;-74
2021/12/01 10:27:44;;;;;;;13.20;6.60;;;;;;;;;;8409562;28;20444;-74
2021/12/01 10:31:52;;;;;;;10.43;5.60;;;;;;;;;;8414356;28;20045;-74
2021/12/01 10:35:55;;;;;;;8.93;5.82;;;;;;;;;;8398658;28;20044;-74
2021/12/01 10:40:09;;;;;;;8.43;5.75;;;;;;;;;;8400458;28;20048;-75
2021/12/01 10:44:14;;;;;;;12.95;6.82;;;;;;;;;;8400333;28;20045;-74
2021/12/01 10:48:25;;;;;;;12.35;6.53;;;;;;;;;;8399521;28;20053;-74
2021/12/01 10:52:32;;;;;;;16.98;8.95;;;;;;;;;;8400107;28;20047;-74
2021/12/01 10:56:36;;;;;;;14.07;8.70;;;;;;;;;;8399845;28;20048;-74
2021/12/01 11:00:44;;;;;;;28.27;13.40;;;;;;;;;;8399980;28;20043;-74
2021/12/01 11:04:51;;;;;;;28.63;12.20;;;;;;;;;;8400105;28;20045;-75
2021/12/01 11:08:58;;;;;;;17.23;10.55;;;;;;;;;;8399868;28;20090;-74
2021/12/01 11:13:03;;;;;;;11.27;6.60;;;;;;;;;;8399782;28;20048;-74
2021/12/01 11:17:06;;;;;;;13.95;7.70;;;;;;;;;;8399609;28;20053;-73
2021/12/01 11:21:12;;;;;;;9.55;5.18;;;;;;;;;;8399285;28;20052;-74
2021/12/01 11:25:20;;;;;;;20.60;10.07;;;;;;;;;;8399902;28;20040;-74
2021/12/01 11:29:26;;;;;;;15.30;8.50;;;;;;;;;;8399663;28;20064;-74
2021/12/01 11:33:30;;;;;;;15.48;8.48;;;;;;;;;;8399437;28;20052;-74
2021/12/01 11:37:37;;;;;;;21.58;10.73;;;;;;;;;;8398739;28;20051;-74
2021/12/01 11:41:43;;;;;;;12.05;6.80;;;;;;;;;;8414615;28;20132;-74
2021/12/01 11:45:49;;;;;;;11.63;5.82;;;;;;;;;;8396250;28;20048;-74
2021/12/01 11:49:57;;;;;;;11.05;5.70;;;;;;;;;;8397945;28;20044;-75
2021/12/01 11:54:11;;;;;;;13.77;6.88;;;;;;;;;;8429856;28;20052;-73
2021/12/01 11:58:53;;;;;;;20.00;8.77;;;;;;;;;;8424979;28;20458;-74
2021/12/01 12:03:17;;;;;;;18.95;7.38;;;;;;;;;;8418369;28;20063;-74
2021/12/01 12:07:33;;;;;;;16.48;8.13;;;;;;;;;;8426733;28;20407;-74
2021/12/01 12:11:40;;;;;;;18.48;7.35;;;;;;;;;;8428123;28;20055;-74
2021/12/01 12:15:47;;;;;;;13.90;6.32;;;;;;;;;;8429286;28;20063;-74
2021/12/01 12:19:57;;;;;;;24.20;14.13;;;;;;;;;;8411782;28;20143;-74
2021/12/01 12:24:07;;;;;;;20.00;8.75;;;;;;;;;;8417025;28;20048;-74
2021/12/01 12:28:28;;;;;;;24.25;11.98;;;;;;;;;;8395292;28;20048;-74
2021/12/01 12:32:33;;;;;;;17.55;8.70;;;;;;;;;;8426965;28;20044;-74
2021/12/01 12:36:41;;;;;;;15.35;7.97;;;;;;;;;;8428264;28;20555;-74
2021/12/01 12:40:44;;;;;;;33.88;17.25;;;;;;;;;;8400135;28;20488;-74
2021/12/01 12:44:51;;;;;;;22.48;11.82;;;;;;;;;;8427798;28;20044;-73
2021/12/01 12:48:55;;;;;;;16.85;8.27;;;;;;;;;;8427243;28;20461;-73
2021/12/01 12:53:07;;;;;;;26.45;13.88;;;;;;;;;;8428227;28;20052;-73
2021/12/01 12:57:10;;;;;;;28.60;13.38;;;;;;;;;;8428530;28;20044;-73
2021/12/01 13:01:24;;;;;;;20.55;12.27;;;;;;;;;;8429855;28;20040;-73
2021/12/01 13:05:32;;;;;;;21.80;10.77;;;;;;;;;;8429561;28;20166;-73
2021/12/01 13:09:35;;;;;;;19.90;10.85;;;;;;;;;;8430565;28;20052;-73
2021/12/01 13:13:40;;;;;;;17.33;9.00;;;;;;;;;;8429232;28;20075;-74
2021/12/01 13:17:49;;;;;;;19.95;9.10;;;;;;;;;;8429466;28;20067;-73
2021/12/01 13:21:52;;;;;;;21.63;11.02;;;;;;;;;;8430059;28;20048;-73
2021/12/01 13:26:07;;;;;;;19.27;10.07;;;;;;;;;;8429742;28;20427;-74
2021/12/01 13:30:11;;;;;;;24.10;11.02;;;;;;;;;;8430180;28;20399;-74
2021/12/01 13:34:17;;;;;;;18.90;10.38;;;;;;;;;;8402966;28;20152;-74
2021/12/01 13:38:32;;;;;;;39.60;19.48;;;;;;;;;;8417172;28;20048;-74
2021/12/01 13:42:35;;;;;;;53.67;22.70;;;;;;;;;;8433103;28;20051;-74
2021/12/01 13:46:39;;;;;;;28.23;13.68;;;;;;;;;;8418450;28;20052;-73
2021/12/01 13:50:44;;;;;;;37.00;17.25;;;;;;;;;;8428020;28;20094;-73
2021/12/01 13:54:47;;;;;;;23.20;11.07;;;;;;;;;;8426014;28;20051;-73
2021/12/01 13:58:59;;;;;;;26.85;13.82;;;;;;;;;;8432056;28;20059;-73
2021/12/01 14:03:04;;;;;;;19.88;10.57;;;;;;;;;;8434876;28;20406;-74
2021/12/01 14:07:09;;;;;;;22.05;11.73;;;;;;;;;;8432990;28;20510;-73
2021/12/01 14:11:29;;;;;;;21.92;9.43;;;;;;;;;;8431705;28;20048;-73
2021/12/01 14:15:34;;;;;;;23.90;10.57;;;;;;;;;;8432084;28;20075;-73
2021/12/01 14:19:38;;;;;;;30.77;13.15;;;;;;;;;;8436552;28;20040;-74
2021/12/01 14:23:46;;;;;;;24.30;11.65;;;;;;;;;;8430131;28;20044;-73
2021/12/01 14:27:52;;;;;;;29.67;14.48;;;;;;;;;;8424072;28;20040;-73
2021/12/01 14:32:01;;;;;;;18.30;9.40;;;;;;;;;;8431884;28;20044;-73
2021/12/01 14:36:06;;;;;;;23.45;11.30;;;;;;;;;;8435746;28;20048;-73
2021/12/01 14:40:13;;;;;;;33.78;15.25;;;;;;;;;;8436860;28;20067;-73
2021/12/01 14:44:17;;;;;;;25.17;12.07;;;;;;;;;;8421815;28;20039;-73
2021/12/01 14:48:23;;;;;;;27.77;12.18;;;;;;;;;;8429572;28;20478;-73
2021/12/01 14:52:29;;;;;;;19.95;9.93;;;;;;;;;;8430972;28;20500;-73
2021/12/01 14:56:34;;;;;;;20.73;10.93;;;;;;;;;;8431357;28;20113;-74
2021/12/01 15:00:39;;;;;;;17.27;8.32;;;;;;;;;;8416631;28;20135;-74
2021/12/01 15:05:13;;;;;;;18.30;9.90;;;;;;;;;;8401086;28;20454;-74
2021/12/01 15:09:17;;;;;;;20.35;10.63;;;;;;;;;;8406200;28;20151;-73
2021/12/01 15:13:24;;;;;;;22.48;11.25;;;;;;;;;;8427161;28;20052;-77
2021/12/01 15:17:29;;;;;;;28.95;12.57;;;;;;;;;;8412097;28;20045;-73
2021/12/01 15:21:48;;;;;;;24.50;11.75;;;;;;;;;;8416728;28;20415;-74
2021/12/01 15:25:54;;;;;;;21.77;11.63;;;;;;;;;;8417030;28;20045;-74
2021/12/01 15:30:24;;;;;;;18.92;10.35;;;;;;;;;;8430811;28;20060;-74
2021/12/01 15:34:38;;;;;;;23.80;11.43;;;;;;;;;;8428163;28;20533;-74
2021/12/01 15:38:41;;;;;;;21.92;10.75;;;;;;;;;;8406283;28;20040;-74
2021/12/01 15:42:44;;;;;;;27.92;11.50;;;;;;;;;;8417697;28;20048;-73
2021/12/01 15:46:50;;;;;;;20.92;9.88;;;;;;;;;;8413617;28;20056;-73
2021/12/01 15:50:55;;;;;;;31.95;14.88;;;;;;;;;;8407983;28;20109;-73
2021/12/01 15:54:59;;;;;;;21.52;10.15;;;;;;;;;;8422329;28;20480;-75
2021/12/01 15:59:04;;;;;;;22.38;10.30;;;;;;;;;;8405082;28;20427;-75
2021/12/01 16:03:08;;;;;;;26.85;13.73;;;;;;;;;;8406608;28;20072;-75
2021/12/01 16:07:11;;;;;;;87.55;44.45;;;;;;;;;;8421388;28;20044;-73
2021/12/01 16:11:14;;;;;;;40.15;24.98;;;;;;;;;;8412039;28;20047;-73
2021/12/01 16:15:18;;;;;;;25.92;14.73;;;;;;;;;;8407107;28;20135;-83
2021/12/01 16:19:28;;;;;;;46.85;31.65;;;;;;;;;;8420163;28;20136;-75
2021/12/01 16:23:36;;;;;;;25.67;15.88;;;;;;;;;;8428724;28;20453;-73
2021/12/01 16:27:41;;;;;;;31.08;16.33;;;;;;;;;;8418800;28;20055;-74
2021/12/01 16:31:45;;;;;;;33.60;14.07;;;;;;;;;;8408778;28;20048;-72
2021/12/01 16:35:50;;;;;;;30.02;16.35;;;;;;;;;;8402303;28;20066;-73
2021/12/01 16:39:54;;;;;;;28.10;14.82;;;;;;;;;;8410776;28;20045;-72
2021/12/01 16:43:57;;;;;;;35.60;22.45;;;;;;;;;;8395972;28;20105;-73
2021/12/01 16:48:04;;;;;;;36.70;20.52;;;;;;;;;;8398414;28;20063;-72
2021/12/01 16:52:09;;;;;;;29.23;16.38;;;;;;;;;;8398435;28;20412;-73
2021/12/01 16:56:21;;;;;;;29.93;12.37;;;;;;;;;;8425560;28;20048;-72
2021/12/01 17:00:30;;;;;;;61.03;30.35;;;;;;;;;;8420421;28;20135;-72
2021/12/01 17:04:36;;;;;;;36.00;18.30;;;;;;;;;;8420662;28;20048;-72
2021/12/01 17:08:42;;;;;;;39.28;20.42;;;;;;;;;;8408128;28;20048;-72
2021/12/01 17:12:48;;;;;;;25.35;14.30;;;;;;;;;;8426520;28;20032;-73
2021/12/01 17:16:54;;;;;;;75.72;29.63;;;;;;;;;;8434010;28;20105;-73
2021/12/01 17:20:58;;;;;;;82.13;33.25;;;;;;;;;;8417978;28;20491;-73
2021/12/01 17:25:07;;;;;;;78.35;32.90;;;;;;;;;;8429213;28;20127;-72
2021/12/01 17:29:10;;;;;;;139.02;54.67;;;;;;;;;;8430959;28;20040;-72
2021/12/01 17:33:13;;;;;;;116.72;39.53;;;;;;;;;;8411711;28;20075;-72
2021/12/01 17:37:17;;;;;;;47.63;23.25;;;;;;;;;;8401951;28;20047;-73
2021/12/01 17:41:24;;;;;;;44.55;23.60;;;;;;;;;;8416150;28;20089;-73
2021/12/01 17:45:29;;;;;;;36.40;17.70;;;;;;;;;;8410514;28;20056;-73
2021/12/01 17:49:47;;;;;;;31.38;16.55;;;;;;;;;;8410783;28;20075;-73
2021/12/01 17:53:53;;;;;;;23.80;10.57;;;;;;;;;;8423162;28;20143;-73
2021/12/01 17:57:59;;;;;;;30.58;16.00;;;;;;;;;;8419906;28;20109;-73
2021/12/01 18:02:05;;;;;;;28.45;13.10;;;;;;;;;;8427809;28;20109;-73
2021/12/01 18:06:14;;;;;;;40.40;21.35;;;;;;;;;;8423545;28;20091;-72
2021/12/01 18:10:21;;;;;;;32.50;17.88;;;;;;;;;;8419092;28;20036;-75
2021/12/01 18:14:28;;;;;;;29.70;14.23;;;;;;;;;;8425212;28;20048;-79
2021/12/01 18:18:32;;;;;;;31.13;18.40;;;;;;;;;;8425980;28;20581;-73
2021/12/01 18:22:36;;;;;;;28.25;14.27;;;;;;;;;;8420235;28;20040;-74
2021/12/01 18:26:41;;;;;;;36.30;19.45;;;;;;;;;;8408001;28;20036;-74
2021/12/01 18:30:58;;;;;;;29.52;14.55;;;;;;;;;;8412869;28;20121;-74
2021/12/01 18:35:03;;;;;;;37.92;19.92;;;;;;;;;;8421958;28;20146;-73
2021/12/01 18:39:11;;;;;;;41.20;20.65;;;;;;;;;;8416915;28;20053;-73
2021/12/01 18:43:18;;;;;;;37.22;17.05;;;;;;;;;;8425035;28;20088;-81
2021/12/01 18:47:23;;;;;;;37.42;19.48;;;;;;;;;;8425894;28;20491;-74
2021/12/01 18:51:31;;;;;;;53.80;26.52;;;;;;;;;;8428444;28;20385;-73
2021/12/01 18:55:34;;;;;;;35.28;18.15;;;;;;;;;;8431085;28;20050;-80
2021/12/01 18:59:38;;;;;;;33.55;17.17;;;;;;;;;;8411379;28;20047;-74
2021/12/01 19:03:42;;;;;;;52.00;24.30;;;;;;;;;;8424988;28;20048;-75
2021/12/01 19:07:45;;;;;;;75.10;28.52;;;;;;;;;;8414725;28;20048;-74
2021/12/01 19:11:50;;;;;;;45.72;20.75;;;;;;;;;;8411833;28;20044;-73
2021/12/01 19:15:55;;;;;;;41.85;20.90;;;;;;;;;;8419949;28;20090;-73
2021/12/01 19:20:00;;;;;;;34.05;16.80;;;;;;;;;;8407687;28;20043;-78
2021/12/01 19:24:04;;;;;;;44.45;19.70;;;;;;;;;;8441824;28;20051;-73
2021/12/01 19:28:07;;;;;;;36.00;17.90;;;;;;;;;;8445697;28;20063;-73
2021/12/01 19:32:14;;;;;;;36.63;18.10;;;;;;;;;;8432139;28;20044;-73
2021/12/01 19:36:20;;;;;;;40.28;21.33;;;;;;;;;;8432720;28;20066;-73
2021/12/01 19:40:24;;;;;;;38.70;19.40;;;;;;;;;;8432442;28;20044;-73
2021/12/01 19:44:26;;;;;;;70.78;32.97;;;;;;;;;;8432356;28;20055;-72
2021/12/01 19:48:44;;;;;;;47.25;21.50;;;;;;;;;;8426508;28;20537;-74
2021/12/01 19:52:51;;;;;;;68.15;30.42;;;;;;;;;;8398616;28;20047;-73
2021/12/01 19:56:56;;;;;;;80.65;38.85;;;;;;;;;;8398766;28;20048;-73
2021/12/01 20:01:00;;;;;;;52.95;25.33;;;;;;;;;;8398268;28;20060;-73
2021/12/01 20:05:03;;;;;;;65.20;30.27;;;;;;;;;;8398259;28;20044;-73
2021/12/01 20:09:08;;;;;;;41.75;21.33;;;;;;;;;;8398067;28;20500;-73
2021/12/01 20:13:12;;;;;;;62.72;31.33;;;;;;;;;;8398356;28;20052;-73
2021/12/01 20:17:15;;;;;;;35.95;20.15;;;;;;;;;;8397650;28;20045;-73
2021/12/01 20:21:23;;;;;;;44.80;21.33;;;;;;;;;;8397676;28;20127;-73
2021/12/01 20:25:30;;;;;;;41.05;21.35;;;;;;;;;;8397656;28;20044;-73
2021/12/01 20:29:35;;;;;;;43.60;22.35;;;;;;;;;;8397537;28;20062;-73
2021/12/01 20:33:39;;;;;;;39.78;18.55;;;;;;;;;;8397423;28;20420;-73
2021/12/01 20:37:44;;;;;;;35.05;17.20;;;;;;;;;;8397708;28;20476;-73
2021/12/01 20:41:49;;;;;;;39.92;19.98;;;;;;;;;;8397200;28;20055;-72
2021/12/01 20:45:59;;;;;;;37.05;18.67;;;;;;;;;;8397031;28;20508;-73
2021/12/01 20:54:41;;;;;;;35.65;18.55;;;;;;;;;;8397040;28;20515;-73
2021/12/01 20:58:51;;;;;;;37.63;19.10;;;;;;;;;;8397347;28;20076;-72
2021/12/01 21:03:01;;;;;;;38.08;22.48;;;;;;;;;;8396891;28;20044;-72
2021/12/01 21:07:05;;;;;;;51.47;22.65;;;;;;;;;;8396763;28;20045;-72
2021/12/01 21:11:14;;;;;;;57.17;25.20;;;;;;;;;;8396756;28;20062;-72
2021/12/01 21:15:19;;;;;;;35.88;19.55;;;;;;;;;;8396754;28;20052;-72
2021/12/01 21:19:25;;;;;;;46.63;20.65;;;;;;;;;;8397094;28;20045;-72
2021/12/01 21:23:29;;;;;;;34.72;19.23;;;;;;;;;;8396655;28;20480;-73
2021/12/01 21:27:33;;;;;;;49.22;21.70;;;;;;;;;;8396465;28;20056;-72
2021/12/01 21:31:42;;;;;;;35.67;16.65;;;;;;;;;;8396379;28;20052;-72
2021/12/01 21:35:46;;;;;;;26.35;13.02;;;;;;;;;;8396425;28;20127;-72
2021/12/01 21:39:51;;;;;;;37.85;17.83;;;;;;;;;;8396195;28;20044;-73
2021/12/01 21:43:56;;;;;;;27.35;13.35;;;;;;;;;;8396144;28;20052;-73
2021/12/01 21:48:01;;;;;;;28.55;13.55;;;;;;;;;;8395952;28;20080;-73
2021/12/01 21:52:06;;;;;;;29.55;14.70;;;;;;;;;;8396547;28;20044;-73
2021/12/01 21:56:12;;;;;;;29.98;13.23;;;;;;;;;;8396401;28;20045;-73
2021/12/01 22:00:16;;;;;;;24.98;15.65;;;;;;;;;;8398383;28;20067;-73
2021/12/01 22:04:22;;;;;;;28.25;14.75;;;;;;;;;;8401904;28;20095;-72
2021/12/01 22:08:25;;;;;;;30.50;15.40;;;;;;;;;;8401883;28;20404;-73
2021/12/01 22:12:28;;;;;;;22.58;12.00;;;;;;;;;;8401730;28;20044;-73
2021/12/01 22:16:32;;;;;;;25.95;12.73;;;;;;;;;;8401606;28;20110;-73
2021/12/01 22:20:40;;;;;;;24.92;13.00;;;;;;;;;;8401545;28;20052;-73
2021/12/01 22:24:48;;;;;;;25.45;13.60;;;;;;;;;;8401941;28;20052;-73
2021/12/01 22:28:51;;;;;;;27.05;12.02;;;;;;;;;;8401291;28;20054;-72
2021/12/01 22:32:55;;;;;;;31.45;11.18;;;;;;;;;;8401135;28;20055;-73
2021/12/01 22:36:59;;;;;;;22.70;10.70;;;;;;;;;;8400891;28;20056;-73
2021/12/01 22:41:06;;;;;;;21.38;10.82;;;;;;;;;;8400952;28;20480;-73
2021/12/01 22:45:09;;;;;;;26.42;11.70;;;;;;;;;;8400639;28;20147;-73
2021/12/01 22:49:12;;;;;;;25.33;11.27;;;;;;;;;;8401201;28;20480;-73
2021/12/01 22:53:16;;;;;;;19.98;10.60;;;;;;;;;;8401045;28;20045;-73
2021/12/01 22:57:21;;;;;;;24.30;11.35;;;;;;;;;;8400343;28;20056;-73
2021/12/01 23:01:26;;;;;;;21.48;10.15;;;;;;;;;;8400864;28;20048;-73
2021/12/01 23:05:30;;;;;;;20.77;11.52;;;;;;;;;;8400673;28;20056;-73
2021/12/01 23:09:36;;;;;;;18.90;10.27;;;;;;;;;;8400171;28;20068;-73
2021/12/01 23:13:40;;;;;;;21.02;10.45;;;;;;;;;;8399402;28;20049;-73
2021/12/01 23:17:42;;;;;;;20.33;9.85;;;;;;;;;;8399696;28;20055;-73
2021/12/01 23:21:49;;;;;;;17.98;10.18;;;;;;;;;;8400174;28;20044;-73
2021/12/01 23:30:14;;;;;;;20.40;10.38;;;;;;;;;;8419648;28;20051;-74
2021/12/01 23:34:17;;;;;;;18.48;10.00;;;;;;;;;;8438355;28;20059;-74
2021/12/01 23:38:20;;;;;;;19.90;9.95;;;;;;;;;;8437811;28;20043;-73
2021/12/01 23:42:25;;;;;;;17.45;10.05;;;;;;;;;;8450394;28;20036;-74
2021/12/01 23:55:05;;;;;;;16.83;8.93;;;;;;;;;;8443386;28;20044;-73
2021/12/01 23:59:09;;;;;;;21.65;10.68;;;;;;;;;;8437430;28;20101;-73
